sensor_id;sensor_type;location;lat;lon;timestamp;P1;durP1;ratioP1;P2;durP2;ratioP2
31087;SDS011;17745;55.914;37.554;2023-05-07T00:01:52;7.87;;;5.53;;
31087;SDS011;17745;55.914;37.554;2023-05-07T00:04:20;10.35;;;6.30;;
31087;SDS011;17745;55.914;37.554;2023-05-07T00:06:48;11.40;;;6.57;;
31087;SDS011;17745;55.914;37.554;2023-05-07T00:09:15;12.65;;;6.30;;
31087;SDS011;17745;55.914;37.554;2023-05-07T00:11:45;10.93;;;6.75;;
31087;SDS011;17745;55.914;37.554;2023-05-07T00:14:12;8.13;;;4.80;;
31087;SDS011;17745;55.914;37.554;2023-05-07T00:16:40;8.55;;;6.15;;
31087;SDS011;17745;55.914;37.554;2023-05-07T00:19:08;10.40;;;6.05;;
31087;SDS011;17745;55.914;37.554;2023-05-07T00:21:35;8.73;;;6.20;;
31087;SDS011;17745;55.914;37.554;2023-05-07T00:24:03;10.98;;;5.57;;
31087;SDS011;17745;55.914;37.554;2023-05-07T00:26:31;9.18;;;5.68;;
31087;SDS011;17745;55.914;37.554;2023-05-07T00:29:00;8.38;;;5.70;;
31087;SDS011;17745;55.914;37.554;2023-05-07T00:31:28;8.45;;;5.97;;
31087;SDS011;17745;55.914;37.554;2023-05-07T00:33:56;7.70;;;5.03;;
31087;SDS011;17745;55.914;37.554;2023-05-07T00:36:25;10.20;;;6.25;;
31087;SDS011;17745;55.914;37.554;2023-05-07T00:38:53;9.32;;;5.12;;
31087;SDS011;17745;55.914;37.554;2023-05-07T00:41:22;10.27;;;6.05;;
31087;SDS011;17745;55.914;37.554;2023-05-07T00:43:50;6.93;;;5.25;;
31087;SDS011;17745;55.914;37.554;2023-05-07T00:46:20;12.40;;;5.65;;
31087;SDS011;17745;55.914;37.554;2023-05-07T00:48:49;7.85;;;4.97;;
31087;SDS011;17745;55.914;37.554;2023-05-07T00:51:18;12.13;;;6.07;;
31087;SDS011;17745;55.914;37.554;2023-05-07T00:53:46;8.15;;;5.03;;
31087;SDS011;17745;55.914;37.554;2023-05-07T00:56:14;14.32;;;5.87;;
31087;SDS011;17745;55.914;37.554;2023-05-07T00:58:43;11.60;;;6.03;;
31087;SDS011;17745;55.914;37.554;2023-05-07T01:01:13;7.32;;;5.07;;
31087;SDS011;17745;55.914;37.554;2023-05-07T01:03:44;9.65;;;5.90;;
31087;SDS011;17745;55.914;37.554;2023-05-07T01:06:15;9.50;;;4.18;;
31087;SDS011;17745;55.914;37.554;2023-05-07T01:08:44;7.10;;;5.35;;
31087;SDS011;17745;55.914;37.554;2023-05-07T01:11:13;7.03;;;4.60;;
31087;SDS011;17745;55.914;37.554;2023-05-07T01:13:41;13.88;;;6.60;;
31087;SDS011;17745;55.914;37.554;2023-05-07T01:16:13;10.30;;;6.28;;
31087;SDS011;17745;55.914;37.554;2023-05-07T01:18:41;17.45;;;7.18;;
31087;SDS011;17745;55.914;37.554;2023-05-07T01:21:11;11.68;;;6.40;;
31087;SDS011;17745;55.914;37.554;2023-05-07T01:23:41;10.70;;;6.50;;
31087;SDS011;17745;55.914;37.554;2023-05-07T01:26:09;13.05;;;6.55;;
31087;SDS011;17745;55.914;37.554;2023-05-07T01:28:37;11.30;;;6.93;;
31087;SDS011;17745;55.914;37.554;2023-05-07T01:31:05;11.12;;;7.25;;
31087;SDS011;17745;55.914;37.554;2023-05-07T01:33:34;10.82;;;6.47;;
31087;SDS011;17745;55.914;37.554;2023-05-07T01:36:04;14.63;;;7.32;;
31087;SDS011;17745;55.914;37.554;2023-05-07T01:38:34;12.82;;;6.60;;
31087;SDS011;17745;55.914;37.554;2023-05-07T01:41:04;9.82;;;6.70;;
31087;SDS011;17745;55.914;37.554;2023-05-07T01:43:33;8.80;;;5.97;;
31087;SDS011;17745;55.914;37.554;2023-05-07T01:46:02;10.90;;;6.78;;
31087;SDS011;17745;55.914;37.554;2023-05-07T01:48:30;12.48;;;6.57;;
31087;SDS011;17745;55.914;37.554;2023-05-07T01:50:59;9.15;;;5.97;;
31087;SDS011;17745;55.914;37.554;2023-05-07T01:53:35;12.93;;;6.53;;
31087;SDS011;17745;55.914;37.554;2023-05-07T01:56:05;8.32;;;5.35;;
31087;SDS011;17745;55.914;37.554;2023-05-07T01:58:34;8.52;;;5.97;;
31087;SDS011;17745;55.914;37.554;2023-05-07T02:01:02;13.20;;;6.85;;
31087;SDS011;17745;55.914;37.554;2023-05-07T02:03:30;14.23;;;6.82;;
31087;SDS011;17745;55.914;37.554;2023-05-07T02:05:58;10.52;;;6.28;;
31087;SDS011;17745;55.914;37.554;2023-05-07T02:08:26;8.50;;;6.37;;
31087;SDS011;17745;55.914;37.554;2023-05-07T02:10:54;10.77;;;6.60;;
31087;SDS011;17745;55.914;37.554;2023-05-07T02:13:26;12.48;;;6.65;;
31087;SDS011;17745;55.914;37.554;2023-05-07T02:15:56;12.23;;;6.20;;
31087;SDS011;17745;55.914;37.554;2023-05-07T02:18:25;12.82;;;6.35;;
31087;SDS011;17745;55.914;37.554;2023-05-07T02:20:53;12.43;;;6.68;;
31087;SDS011;17745;55.914;37.554;2023-05-07T02:23:22;9.63;;;6.03;;
31087;SDS011;17745;55.914;37.554;2023-05-07T02:25:50;10.35;;;5.80;;
31087;SDS011;17745;55.914;37.554;2023-05-07T02:28:18;11.60;;;6.82;;
31087;SDS011;17745;55.914;37.554;2023-05-07T02:30:48;13.57;;;6.45;;
31087;SDS011;17745;55.914;37.554;2023-05-07T02:33:17;10.75;;;6.07;;
31087;SDS011;17745;55.914;37.554;2023-05-07T02:35:45;11.12;;;6.53;;
31087;SDS011;17745;55.914;37.554;2023-05-07T02:38:14;10.50;;;5.95;;
31087;SDS011;17745;55.914;37.554;2023-05-07T02:40:43;11.32;;;6.32;;
31087;SDS011;17745;55.914;37.554;2023-05-07T02:43:11;11.98;;;6.85;;
31087;SDS011;17745;55.914;37.554;2023-05-07T02:45:39;12.02;;;7.30;;
31087;SDS011;17745;55.914;37.554;2023-05-07T02:48:10;15.10;;;6.50;;
31087;SDS011;17745;55.914;37.554;2023-05-07T02:50:39;12.75;;;6.85;;
31087;SDS011;17745;55.914;37.554;2023-05-07T02:53:07;11.20;;;6.37;;
31087;SDS011;17745;55.914;37.554;2023-05-07T02:55:35;15.63;;;7.12;;
31087;SDS011;17745;55.914;37.554;2023-05-07T02:58:03;15.50;;;6.70;;
31087;SDS011;17745;55.914;37.554;2023-05-07T03:00:32;13.55;;;6.97;;
31087;SDS011;17745;55.914;37.554;2023-05-07T03:03:01;19.52;;;6.97;;
31087;SDS011;17745;55.914;37.554;2023-05-07T03:05:30;17.58;;;7.07;;
31087;SDS011;17745;55.914;37.554;2023-05-07T03:08:01;10.75;;;6.00;;
31087;SDS011;17745;55.914;37.554;2023-05-07T03:10:29;11.77;;;5.80;;
31087;SDS011;17745;55.914;37.554;2023-05-07T03:12:57;12.90;;;6.45;;
31087;SDS011;17745;55.914;37.554;2023-05-07T03:15:25;11.05;;;6.85;;
31087;SDS011;17745;55.914;37.554;2023-05-07T03:17:52;12.52;;;6.07;;
31087;SDS011;17745;55.914;37.554;2023-05-07T03:20:20;11.70;;;6.03;;
31087;SDS011;17745;55.914;37.554;2023-05-07T03:22:49;9.02;;;5.93;;
31087;SDS011;17745;55.914;37.554;2023-05-07T03:25:17;10.82;;;6.18;;
31087;SDS011;17745;55.914;37.554;2023-05-07T03:27:46;10.93;;;5.95;;
31087;SDS011;17745;55.914;37.554;2023-05-07T03:30:17;10.90;;;6.20;;
31087;SDS011;17745;55.914;37.554;2023-05-07T03:32:44;14.63;;;6.07;;
31087;SDS011;17745;55.914;37.554;2023-05-07T03:35:12;8.68;;;5.37;;
31087;SDS011;17745;55.914;37.554;2023-05-07T03:37:40;5.90;;;4.12;;
31087;SDS011;17745;55.914;37.554;2023-05-07T03:40:10;7.53;;;5.62;;
31087;SDS011;17745;55.914;37.554;2023-05-07T03:42:39;9.20;;;5.12;;
31087;SDS011;17745;55.914;37.554;2023-05-07T03:45:08;6.82;;;3.95;;
31087;SDS011;17745;55.914;37.554;2023-05-07T03:47:36;7.05;;;4.60;;
31087;SDS011;17745;55.914;37.554;2023-05-07T03:50:05;7.10;;;4.57;;
31087;SDS011;17745;55.914;37.554;2023-05-07T03:52:33;6.30;;;4.00;;
31087;SDS011;17745;55.914;37.554;2023-05-07T03:55:02;8.05;;;4.20;;
31087;SDS011;17745;55.914;37.554;2023-05-07T03:57:32;8.68;;;4.80;;
31087;SDS011;17745;55.914;37.554;2023-05-07T04:00:00;7.90;;;4.62;;
31087;SDS011;17745;55.914;37.554;2023-05-07T04:02:32;10.68;;;5.15;;
31087;SDS011;17745;55.914;37.554;2023-05-07T04:05:02;9.77;;;5.32;;
31087;SDS011;17745;55.914;37.554;2023-05-07T04:07:30;8.63;;;5.32;;
31087;SDS011;17745;55.914;37.554;2023-05-07T04:09:57;7.22;;;4.18;;
31087;SDS011;17745;55.914;37.554;2023-05-07T04:12:25;6.40;;;4.43;;
31087;SDS011;17745;55.914;37.554;2023-05-07T04:14:54;9.48;;;4.93;;
31087;SDS011;17745;55.914;37.554;2023-05-07T04:17:22;8.18;;;5.43;;
31087;SDS011;17745;55.914;37.554;2023-05-07T04:19:50;8.05;;;4.50;;
31087;SDS011;17745;55.914;37.554;2023-05-07T04:22:18;6.12;;;3.85;;
31087;SDS011;17745;55.914;37.554;2023-05-07T04:24:46;13.23;;;5.30;;
31087;SDS011;17745;55.914;37.554;2023-05-07T04:27:14;8.57;;;5.07;;
31087;SDS011;17745;55.914;37.554;2023-05-07T04:29:42;5.93;;;4.35;;
31087;SDS011;17745;55.914;37.554;2023-05-07T04:32:14;8.93;;;4.62;;
31087;SDS011;17745;55.914;37.554;2023-05-07T04:34:45;6.10;;;4.28;;
31087;SDS011;17745;55.914;37.554;2023-05-07T04:37:43;9.80;;;5.25;;
31087;SDS011;17745;55.914;37.554;2023-05-07T04:40:52;12.27;;;4.37;;
31087;SDS011;17745;55.914;37.554;2023-05-07T04:43:21;8.45;;;4.40;;
31087;SDS011;17745;55.914;37.554;2023-05-07T04:45:50;9.18;;;3.85;;
31087;SDS011;17745;55.914;37.554;2023-05-07T04:48:19;7.28;;;4.30;;
31087;SDS011;17745;55.914;37.554;2023-05-07T04:50:48;6.60;;;3.95;;
31087;SDS011;17745;55.914;37.554;2023-05-07T04:53:16;8.02;;;3.40;;
31087;SDS011;17745;55.914;37.554;2023-05-07T04:55:44;4.72;;;3.33;;
31087;SDS011;17745;55.914;37.554;2023-05-07T04:58:13;5.30;;;3.58;;
31087;SDS011;17745;55.914;37.554;2023-05-07T05:00:41;5.47;;;3.65;;
31087;SDS011;17745;55.914;37.554;2023-05-07T05:03:09;5.30;;;3.40;;
31087;SDS011;17745;55.914;37.554;2023-05-07T05:05:39;4.65;;;2.92;;
31087;SDS011;17745;55.914;37.554;2023-05-07T05:08:07;5.62;;;3.33;;
31087;SDS011;17745;55.914;37.554;2023-05-07T05:10:35;4.93;;;3.25;;
31087;SDS011;17745;55.914;37.554;2023-05-07T05:13:04;4.70;;;2.90;;
31087;SDS011;17745;55.914;37.554;2023-05-07T05:15:32;4.05;;;2.87;;
31087;SDS011;17745;55.914;37.554;2023-05-07T05:18:00;4.95;;;2.40;;
31087;SDS011;17745;55.914;37.554;2023-05-07T05:20:29;4.65;;;2.58;;
31087;SDS011;17745;55.914;37.554;2023-05-07T05:22:59;5.62;;;3.40;;
31087;SDS011;17745;55.914;37.554;2023-05-07T05:25:30;4.70;;;3.25;;
31087;SDS011;17745;55.914;37.554;2023-05-07T05:27:59;5.45;;;2.87;;
31087;SDS011;17745;55.914;37.554;2023-05-07T05:30:27;4.55;;;2.78;;
31087;SDS011;17745;55.914;37.554;2023-05-07T05:33:13;4.75;;;2.40;;
31087;SDS011;17745;55.914;37.554;2023-05-07T05:35:41;6.28;;;2.90;;
31087;SDS011;17745;55.914;37.554;2023-05-07T05:38:11;5.15;;;2.80;;
31087;SDS011;17745;55.914;37.554;2023-05-07T05:40:42;3.25;;;2.17;;
31087;SDS011;17745;55.914;37.554;2023-05-07T05:43:10;3.22;;;2.53;;
31087;SDS011;17745;55.914;37.554;2023-05-07T05:45:37;4.03;;;2.47;;
31087;SDS011;17745;55.914;37.554;2023-05-07T05:48:06;3.03;;;2.22;;
31087;SDS011;17745;55.914;37.554;2023-05-07T05:50:34;3.12;;;1.90;;
31087;SDS011;17745;55.914;37.554;2023-05-07T05:53:06;4.85;;;3.00;;
31087;SDS011;17745;55.914;37.554;2023-05-07T05:55:50;5.05;;;2.78;;
31087;SDS011;17745;55.914;37.554;2023-05-07T05:58:18;4.90;;;3.00;;
31087;SDS011;17745;55.914;37.554;2023-05-07T06:00:48;4.00;;;2.17;;
31087;SDS011;17745;55.914;37.554;2023-05-07T06:03:19;3.00;;;2.15;;
31087;SDS011;17745;55.914;37.554;2023-05-07T06:06:11;3.95;;;2.50;;
31087;SDS011;17745;55.914;37.554;2023-05-07T06:08:41;7.70;;;2.60;;
31087;SDS011;17745;55.914;37.554;2023-05-07T06:11:13;4.55;;;2.50;;
31087;SDS011;17745;55.914;37.554;2023-05-07T06:13:43;4.03;;;2.30;;
31087;SDS011;17745;55.914;37.554;2023-05-07T06:16:11;4.95;;;2.35;;
31087;SDS011;17745;55.914;37.554;2023-05-07T06:18:39;5.22;;;2.45;;
31087;SDS011;17745;55.914;37.554;2023-05-07T06:21:13;2.28;;;1.80;;
31087;SDS011;17745;55.914;37.554;2023-05-07T06:23:46;3.35;;;2.37;;
31087;SDS011;17745;55.914;37.554;2023-05-07T06:26:20;3.17;;;1.80;;
31087;SDS011;17745;55.914;37.554;2023-05-07T06:28:50;3.35;;;2.10;;
31087;SDS011;17745;55.914;37.554;2023-05-07T06:31:29;2.87;;;2.25;;
31087;SDS011;17745;55.914;37.554;2023-05-07T06:34:07;3.87;;;2.30;;
31087;SDS011;17745;55.914;37.554;2023-05-07T06:39:48;2.55;;;1.95;;
31087;SDS011;17745;55.914;37.554;2023-05-07T06:42:25;4.60;;;2.40;;
31087;SDS011;17745;55.914;37.554;2023-05-07T06:44:57;3.65;;;2.53;;
31087;SDS011;17745;55.914;37.554;2023-05-07T06:47:30;5.80;;;2.23;;
31087;SDS011;17745;55.914;37.554;2023-05-07T06:50:03;5.60;;;2.60;;
31087;SDS011;17745;55.914;37.554;2023-05-07T06:52:38;3.85;;;2.30;;
31087;SDS011;17745;55.914;37.554;2023-05-07T06:55:07;3.33;;;1.90;;
31087;SDS011;17745;55.914;37.554;2023-05-07T06:57:45;4.15;;;2.50;;
31087;SDS011;17745;55.914;37.554;2023-05-07T07:00:27;6.07;;;2.10;;
31087;SDS011;17745;55.914;37.554;2023-05-07T07:02:56;3.35;;;1.90;;
31087;SDS011;17745;55.914;37.554;2023-05-07T07:05:28;6.00;;;2.12;;
31087;SDS011;17745;55.914;37.554;2023-05-07T07:07:59;3.40;;;2.10;;
31087;SDS011;17745;55.914;37.554;2023-05-07T07:10:27;2.67;;;1.95;;
31087;SDS011;17745;55.914;37.554;2023-05-07T07:13:36;6.43;;;2.40;;
31087;SDS011;17745;55.914;37.554;2023-05-07T07:16:04;3.62;;;2.10;;
31087;SDS011;17745;55.914;37.554;2023-05-07T07:18:33;2.03;;;1.77;;
31087;SDS011;17745;55.914;37.554;2023-05-07T07:21:01;2.40;;;1.95;;
31087;SDS011;17745;55.914;37.554;2023-05-07T07:23:30;2.60;;;2.08;;
31087;SDS011;17745;55.914;37.554;2023-05-07T07:25:59;5.78;;;2.30;;
31087;SDS011;17745;55.914;37.554;2023-05-07T07:46:10;4.78;;;2.12;;
31087;SDS011;17745;55.914;37.554;2023-05-07T07:55:06;4.82;;;2.15;;
31087;SDS011;17745;55.914;37.554;2023-05-07T07:58:42;5.40;;;2.05;;
31087;SDS011;17745;55.914;37.554;2023-05-07T08:12:08;3.80;;;2.10;;
31087;SDS011;17745;55.914;37.554;2023-05-07T08:14:38;3.90;;;2.00;;
31087;SDS011;17745;55.914;37.554;2023-05-07T08:17:09;2.83;;;1.80;;
31087;SDS011;17745;55.914;37.554;2023-05-07T08:19:44;3.05;;;1.73;;
31087;SDS011;17745;55.914;37.554;2023-05-07T08:22:16;3.58;;;1.85;;
31087;SDS011;17745;55.914;37.554;2023-05-07T08:25:04;4.72;;;2.00;;
31087;SDS011;17745;55.914;37.554;2023-05-07T08:27:39;2.40;;;1.70;;
31087;SDS011;17745;55.914;37.554;2023-05-07T08:30:13;3.00;;;1.73;;
31087;SDS011;17745;55.914;37.554;2023-05-07T08:32:48;4.40;;;2.78;;
31087;SDS011;17745;55.914;37.554;2023-05-07T08:35:18;2.72;;;1.90;;
31087;SDS011;17745;55.914;37.554;2023-05-07T08:37:56;1.73;;;1.60;;
31087;SDS011;17745;55.914;37.554;2023-05-07T08:40:27;2.95;;;1.87;;
31087;SDS011;17745;55.914;37.554;2023-05-07T08:43:14;6.00;;;2.12;;
31087;SDS011;17745;55.914;37.554;2023-05-07T08:49:17;4.03;;;2.00;;
31087;SDS011;17745;55.914;37.554;2023-05-07T08:55:26;3.85;;;2.10;;
31087;SDS011;17745;55.914;37.554;2023-05-07T08:58:00;2.20;;;1.58;;
31087;SDS011;17745;55.914;37.554;2023-05-07T09:03:40;3.00;;;1.87;;
31087;SDS011;17745;55.914;37.554;2023-05-07T09:06:24;3.25;;;1.85;;
31087;SDS011;17745;55.914;37.554;2023-05-07T09:08:53;3.22;;;2.15;;
31087;SDS011;17745;55.914;37.554;2023-05-07T09:11:29;4.47;;;2.10;;
31087;SDS011;17745;55.914;37.554;2023-05-07T09:13:58;3.08;;;2.08;;
31087;SDS011;17745;55.914;37.554;2023-05-07T09:16:51;3.62;;;2.03;;
31087;SDS011;17745;55.914;37.554;2023-05-07T09:23:09;3.75;;;1.70;;
31087;SDS011;17745;55.914;37.554;2023-05-07T09:26:41;9.82;;;2.30;;
31087;SDS011;17745;55.914;37.554;2023-05-07T09:29:39;6.30;;;2.00;;
31087;SDS011;17745;55.914;37.554;2023-05-07T09:32:11;2.85;;;1.90;;
31087;SDS011;17745;55.914;37.554;2023-05-07T09:34:39;3.80;;;1.95;;
31087;SDS011;17745;55.914;37.554;2023-05-07T09:37:12;2.35;;;1.75;;
31087;SDS011;17745;55.914;37.554;2023-05-07T09:39:46;3.83;;;1.80;;
31087;SDS011;17745;55.914;37.554;2023-05-07T09:42:23;2.93;;;1.90;;
31087;SDS011;17745;55.914;37.554;2023-05-07T09:45:05;4.60;;;2.20;;
31087;SDS011;17745;55.914;37.554;2023-05-07T09:47:43;3.53;;;2.20;;
31087;SDS011;17745;55.914;37.554;2023-05-07T09:50:18;5.55;;;1.95;;
31087;SDS011;17745;55.914;37.554;2023-05-07T10:00:55;1.87;;;1.60;;
31087;SDS011;17745;55.914;37.554;2023-05-07T10:03:29;3.90;;;2.10;;
31087;SDS011;17745;55.914;37.554;2023-05-07T10:06:01;7.68;;;1.77;;
31087;SDS011;17745;55.914;37.554;2023-05-07T10:08:32;3.80;;;1.70;;
31087;SDS011;17745;55.914;37.554;2023-05-07T10:11:01;5.55;;;1.90;;
31087;SDS011;17745;55.914;37.554;2023-05-07T10:13:32;3.45;;;2.10;;
31087;SDS011;17745;55.914;37.554;2023-05-07T10:16:04;3.55;;;1.90;;
31087;SDS011;17745;55.914;37.554;2023-05-07T10:18:36;3.72;;;2.15;;
31087;SDS011;17745;55.914;37.554;2023-05-07T10:21:07;1.58;;;1.40;;
31087;SDS011;17745;55.914;37.554;2023-05-07T10:23:37;2.92;;;1.83;;
31087;SDS011;17745;55.914;37.554;2023-05-07T10:26:08;4.20;;;1.90;;
31087;SDS011;17745;55.914;37.554;2023-05-07T10:28:38;3.50;;;2.05;;
31087;SDS011;17745;55.914;37.554;2023-05-07T10:31:23;5.55;;;2.30;;
31087;SDS011;17745;55.914;37.554;2023-05-07T10:34:23;4.53;;;2.00;;
31087;SDS011;17745;55.914;37.554;2023-05-07T10:39:56;6.75;;;2.20;;
31087;SDS011;17745;55.914;37.554;2023-05-07T10:45:11;5.45;;;2.25;;
31087;SDS011;17745;55.914;37.554;2023-05-07T10:50:42;3.83;;;2.30;;
31087;SDS011;17745;55.914;37.554;2023-05-07T10:53:22;3.55;;;2.03;;
31087;SDS011;17745;55.914;37.554;2023-05-07T10:58:54;3.28;;;2.00;;
31087;SDS011;17745;55.914;37.554;2023-05-07T11:04:18;2.95;;;1.90;;
31087;SDS011;17745;55.914;37.554;2023-05-07T11:10:01;4.32;;;2.00;;
31087;SDS011;17745;55.914;37.554;2023-05-07T11:12:50;3.75;;;2.30;;
31087;SDS011;17745;55.914;37.554;2023-05-07T11:15:44;3.17;;;2.00;;
31087;SDS011;17745;55.914;37.554;2023-05-07T11:18:20;3.35;;;2.10;;
31087;SDS011;17745;55.914;37.554;2023-05-07T11:20:55;4.65;;;1.80;;
31087;SDS011;17745;55.914;37.554;2023-05-07T11:26:49;10.63;;;2.17;;
31087;SDS011;17745;55.914;37.554;2023-05-07T11:29:23;4.43;;;1.95;;
31087;SDS011;17745;55.914;37.554;2023-05-07T11:31:54;3.10;;;1.80;;
31087;SDS011;17745;55.914;37.554;2023-05-07T11:34:25;3.33;;;1.73;;
31087;SDS011;17745;55.914;37.554;2023-05-07T11:36:54;5.35;;;2.72;;
31087;SDS011;17745;55.914;37.554;2023-05-07T11:39:28;4.53;;;2.17;;
31087;SDS011;17745;55.914;37.554;2023-05-07T11:42:02;2.90;;;1.87;;
31087;SDS011;17745;55.914;37.554;2023-05-07T11:44:42;2.30;;;1.60;;
31087;SDS011;17745;55.914;37.554;2023-05-07T11:47:16;8.13;;;1.95;;
31087;SDS011;17745;55.914;37.554;2023-05-07T11:49:46;3.67;;;2.05;;
31087;SDS011;17745;55.914;37.554;2023-05-07T11:52:15;5.50;;;2.20;;
31087;SDS011;17745;55.914;37.554;2023-05-07T11:54:48;4.35;;;1.90;;
31087;SDS011;17745;55.914;37.554;2023-05-07T11:57:19;2.60;;;1.60;;
31087;SDS011;17745;55.914;37.554;2023-05-07T11:59:47;2.60;;;1.52;;
31087;SDS011;17745;55.914;37.554;2023-05-07T12:02:20;3.15;;;1.67;;
31087;SDS011;17745;55.914;37.554;2023-05-07T12:04:48;1.85;;;1.40;;
31087;SDS011;17745;55.914;37.554;2023-05-07T12:07:16;2.58;;;1.80;;
31087;SDS011;17745;55.914;37.554;2023-05-07T12:09:45;3.05;;;2.08;;
31087;SDS011;17745;55.914;37.554;2023-05-07T12:12:14;3.08;;;1.70;;
31087;SDS011;17745;55.914;37.554;2023-05-07T12:14:45;2.83;;;1.85;;
31087;SDS011;17745;55.914;37.554;2023-05-07T12:17:14;3.40;;;2.22;;
31087;SDS011;17745;55.914;37.554;2023-05-07T12:19:42;4.57;;;2.50;;
31087;SDS011;17745;55.914;37.554;2023-05-07T12:22:14;3.08;;;1.80;;
31087;SDS011;17745;55.914;37.554;2023-05-07T12:24:43;2.78;;;1.80;;
31087;SDS011;17745;55.914;37.554;2023-05-07T12:27:12;3.53;;;1.90;;
31087;SDS011;17745;55.914;37.554;2023-05-07T12:29:45;6.37;;;2.40;;
31087;SDS011;17745;55.914;37.554;2023-05-07T12:32:17;6.72;;;2.97;;
31087;SDS011;17745;55.914;37.554;2023-05-07T12:34:49;3.00;;;2.00;;
31087;SDS011;17745;55.914;37.554;2023-05-07T12:37:22;5.40;;;2.10;;
31087;SDS011;17745;55.914;37.554;2023-05-07T12:40:03;5.20;;;2.30;;
31087;SDS011;17745;55.914;37.554;2023-05-07T12:42:35;4.03;;;1.90;;
31087;SDS011;17745;55.914;37.554;2023-05-07T12:45:09;2.65;;;1.67;;
31087;SDS011;17745;55.914;37.554;2023-05-07T12:47:38;2.87;;;2.05;;
31087;SDS011;17745;55.914;37.554;2023-05-07T12:50:15;4.37;;;2.30;;
31087;SDS011;17745;55.914;37.554;2023-05-07T12:53:06;3.53;;;1.85;;
31087;SDS011;17745;55.914;37.554;2023-05-07T12:55:40;3.87;;;2.03;;
31087;SDS011;17745;55.914;37.554;2023-05-07T13:06:53;2.80;;;1.52;;
31087;SDS011;17745;55.914;37.554;2023-05-07T13:09:22;2.03;;;1.60;;
31087;SDS011;17745;55.914;37.554;2023-05-07T13:11:50;1.95;;;1.40;;
31087;SDS011;17745;55.914;37.554;2023-05-07T13:14:18;4.82;;;2.22;;
31087;SDS011;17745;55.914;37.554;2023-05-07T13:16:47;2.42;;;1.50;;
31087;SDS011;17745;55.914;37.554;2023-05-07T13:19:15;2.45;;;1.75;;
31087;SDS011;17745;55.914;37.554;2023-05-07T13:21:44;10.48;;;1.90;;
31087;SDS011;17745;55.914;37.554;2023-05-07T13:24:15;4.00;;;2.08;;
31087;SDS011;17745;55.914;37.554;2023-05-07T13:26:44;3.85;;;1.58;;
31087;SDS011;17745;55.914;37.554;2023-05-07T13:29:12;2.47;;;1.62;;
31087;SDS011;17745;55.914;37.554;2023-05-07T13:31:44;2.65;;;1.80;;
31087;SDS011;17745;55.914;37.554;2023-05-07T13:34:12;4.00;;;1.80;;
31087;SDS011;17745;55.914;37.554;2023-05-07T13:36:40;3.90;;;2.20;;
31087;SDS011;17745;55.914;37.554;2023-05-07T13:39:15;4.15;;;1.77;;
31087;SDS011;17745;55.914;37.554;2023-05-07T13:41:43;2.80;;;1.67;;
31087;SDS011;17745;55.914;37.554;2023-05-07T13:44:21;3.28;;;1.92;;
31087;SDS011;17745;55.914;37.554;2023-05-07T13:46:49;3.35;;;1.85;;
31087;SDS011;17745;55.914;37.554;2023-05-07T13:49:21;9.20;;;2.55;;
31087;SDS011;17745;55.914;37.554;2023-05-07T13:52:32;4.82;;;1.75;;
31087;SDS011;17745;55.914;37.554;2023-05-07T13:55:29;5.78;;;1.98;;
31087;SDS011;17745;55.914;37.554;2023-05-07T13:58:39;2.12;;;1.50;;
31087;SDS011;17745;55.914;37.554;2023-05-07T14:01:33;3.47;;;1.75;;
31087;SDS011;17745;55.914;37.554;2023-05-07T14:04:03;5.70;;;2.33;;
31087;SDS011;17745;55.914;37.554;2023-05-07T14:06:32;4.60;;;2.00;;
31087;SDS011;17745;55.914;37.554;2023-05-07T14:09:04;6.07;;;2.58;;
31087;SDS011;17745;55.914;37.554;2023-05-07T14:11:44;4.70;;;2.50;;
31087;SDS011;17745;55.914;37.554;2023-05-07T14:14:15;4.72;;;1.70;;
31087;SDS011;17745;55.914;37.554;2023-05-07T14:16:44;6.62;;;2.10;;
31087;SDS011;17745;55.914;37.554;2023-05-07T14:19:19;4.47;;;1.90;;
31087;SDS011;17745;55.914;37.554;2023-05-07T14:21:48;3.03;;;1.98;;
31087;SDS011;17745;55.914;37.554;2023-05-07T14:24:21;2.55;;;1.55;;
31087;SDS011;17745;55.914;37.554;2023-05-07T14:27:08;2.67;;;1.92;;
31087;SDS011;17745;55.914;37.554;2023-05-07T14:29:41;3.37;;;1.90;;
31087;SDS011;17745;55.914;37.554;2023-05-07T14:32:26;2.67;;;1.80;;
31087;SDS011;17745;55.914;37.554;2023-05-07T14:35:01;4.03;;;2.00;;
31087;SDS011;17745;55.914;37.554;2023-05-07T14:37:32;5.62;;;2.05;;
31087;SDS011;17745;55.914;37.554;2023-05-07T14:40:01;2.60;;;1.92;;
31087;SDS011;17745;55.914;37.554;2023-05-07T14:42:34;6.82;;;2.42;;
31087;SDS011;17745;55.914;37.554;2023-05-07T14:45:03;5.72;;;1.77;;
31087;SDS011;17745;55.914;37.554;2023-05-07T14:47:36;3.30;;;2.03;;
31087;SDS011;17745;55.914;37.554;2023-05-07T14:50:08;4.07;;;2.28;;
31087;SDS011;17745;55.914;37.554;2023-05-07T14:52:56;7.50;;;2.97;;
31087;SDS011;17745;55.914;37.554;2023-05-07T14:55:24;5.57;;;2.42;;
31087;SDS011;17745;55.914;37.554;2023-05-07T14:57:55;8.55;;;2.40;;
31087;SDS011;17745;55.914;37.554;2023-05-07T15:00:24;3.25;;;1.98;;
31087;SDS011;17745;55.914;37.554;2023-05-07T15:02:56;5.65;;;2.17;;
31087;SDS011;17745;55.914;37.554;2023-05-07T15:05:45;2.58;;;1.87;;
31087;SDS011;17745;55.914;37.554;2023-05-07T15:08:17;5.95;;;1.90;;
31087;SDS011;17745;55.914;37.554;2023-05-07T15:10:47;2.65;;;1.92;;
31087;SDS011;17745;55.914;37.554;2023-05-07T15:13:18;5.35;;;2.03;;
31087;SDS011;17745;55.914;37.554;2023-05-07T15:15:46;2.80;;;1.70;;
31087;SDS011;17745;55.914;37.554;2023-05-07T15:18:16;2.65;;;1.42;;
31087;SDS011;17745;55.914;37.554;2023-05-07T15:20:44;2.80;;;1.80;;
31087;SDS011;17745;55.914;37.554;2023-05-07T15:23:14;2.03;;;1.52;;
31087;SDS011;17745;55.914;37.554;2023-05-07T15:25:44;3.10;;;1.95;;
31087;SDS011;17745;55.914;37.554;2023-05-07T15:28:12;3.92;;;1.80;;
31087;SDS011;17745;55.914;37.554;2023-05-07T15:30:42;2.33;;;1.60;;
31087;SDS011;17745;55.914;37.554;2023-05-07T15:33:10;6.28;;;2.25;;
31087;SDS011;17745;55.914;37.554;2023-05-07T15:35:39;5.45;;;2.28;;
31087;SDS011;17745;55.914;37.554;2023-05-07T15:41:36;3.72;;;1.95;;
31087;SDS011;17745;55.914;37.554;2023-05-07T15:44:05;5.37;;;2.40;;
31087;SDS011;17745;55.914;37.554;2023-05-07T15:46:34;4.22;;;2.33;;
31087;SDS011;17745;55.914;37.554;2023-05-07T15:49:02;4.00;;;2.00;;
31087;SDS011;17745;55.914;37.554;2023-05-07T15:51:33;7.10;;;2.58;;
31087;SDS011;17745;55.914;37.554;2023-05-07T15:54:02;6.20;;;2.50;;
31087;SDS011;17745;55.914;37.554;2023-05-07T15:56:38;4.30;;;2.40;;
31087;SDS011;17745;55.914;37.554;2023-05-07T15:59:25;5.68;;;1.98;;
31087;SDS011;17745;55.914;37.554;2023-05-07T16:01:57;3.47;;;1.90;;
31087;SDS011;17745;55.914;37.554;2023-05-07T16:04:38;5.30;;;3.00;;
31087;SDS011;17745;55.914;37.554;2023-05-07T16:07:07;4.93;;;2.37;;
31087;SDS011;17745;55.914;37.554;2023-05-07T16:09:40;4.45;;;2.50;;
31087;SDS011;17745;55.914;37.554;2023-05-07T16:12:08;4.35;;;2.65;;
31087;SDS011;17745;55.914;37.554;2023-05-07T16:14:37;6.60;;;2.97;;
31087;SDS011;17745;55.914;37.554;2023-05-07T16:17:10;7.00;;;2.62;;
31087;SDS011;17745;55.914;37.554;2023-05-07T16:19:38;6.60;;;2.62;;
31087;SDS011;17745;55.914;37.554;2023-05-07T16:22:07;5.43;;;2.58;;
31087;SDS011;17745;55.914;37.554;2023-05-07T16:24:36;6.50;;;2.80;;
31087;SDS011;17745;55.914;37.554;2023-05-07T16:27:09;9.63;;;2.80;;
31087;SDS011;17745;55.914;37.554;2023-05-07T16:29:38;5.72;;;2.70;;
31087;SDS011;17745;55.914;37.554;2023-05-07T16:32:13;10.20;;;3.20;;
31087;SDS011;17745;55.914;37.554;2023-05-07T16:34:44;14.55;;;4.25;;